Lutz, FL (33548)

11:19 AM EDT on October 01, 2014 (GMT -0400)
Old Reliable Groves, Lutz, FL | Change Station
CLOSE
Current Station
Personal Weather Station
Location: Lutz, FL
Elevation: 69 ft
Nearby Weather Stations
Active Advisory: Flood Warning Active Notice: Public Information Statement

Elev 69 ft 28.12 °N, 82.47 °W | Updated 14 seconds ago

Overcast
Overcast
79.9 °F
Feels Like 86 °F
N
0.0
Wind Variable Wind from SSE
Gusts 0.0 mph

Today
High -- | Low -- °F
--% Chance of Precip.
Yesterday
High -- | Low -- °F
Precip. -- in
7:22 AM 7:15 PM
Waxing Crescent, 48% visible
Pressure 29.87 in
Visibility 10.0 miles
Clouds Scattered Clouds 1900 ft
Mostly Cloudy 3300 ft
Mostly Cloudy 6000 ft
Mostly Cloudy 25000 ft
Heat Index 86 °F
Dew Point 77 °F
Humidity 92%
Rainfall 0.10 in
Snow Depth Not available.
UV 4 out of 12
Pollen 5.40 out of 12
Air Quality Not available.
Flu Activity Not available.
METAR KTPA 301453Z COR 25009KT 10SM SCT019CB BKN033 BKN060 BKN250 29/24 A2987 RMK AO2 SLP113 CB N-S MOV E TCU SW-NW T02890239 51007

More Conditions Fewer Conditions

Pressure 29.87 in
Visibility 10.0 miles
Clouds Scattered Clouds 1900 ft
Mostly Cloudy 3300 ft
Mostly Cloudy 6000 ft
Mostly Cloudy 25000 ft
Heat Index 86 °F
Dew Point 77 °F
Humidity 92%
Rainfall 0.10 in
Snow Depth Not available.
UV 4 out of 12
Pollen 5.40 out of 12
Air Quality Not available.
Flu Activity Not available.
METAR KTPA 301453Z COR 25009KT 10SM SCT019CB BKN033 BKN060 BKN250 29/24 A2987 RMK AO2 SLP113 CB N-S MOV E TCU SW-NW T02890239 51007

More Conditions Fewer Conditions

10-Day Weather Forecast

Almanac

Astronomy

Oct. 01, 2014 Rise Set
Actual Time 7:22 AM EDT 7:15 PM EDT
Civil Twilight 6:59 AM EDT 7:39 PM EDT
Nautical Twilight 6:32 AM EDT 8:06 PM EDT
Astronomical Twilight 6:04 AM EDT 8:33 PM EDT
Moon 2:01 PM EDT 12:07 AM EDT
Length of Visible Light 12h 39m
Length of Day
11h 53m
Tomorrow will be 1m 40s shorter.
Waxing Crescent, 48% of the Moon is Illuminated
Today
Waxing Crescent
Oct 1
First Quarter
Oct 8
Full
Oct 15
Last Quarter
Oct 23
New

Today's Extremes

State Highs State Lows

Community

WunderPhotos

Upload Photos

1,757,966 photos uploaded!

Nearby

Snow Depth

Station Depth Elevation
No new snow has been reported.

Earthquake Activity

City Distance Mag. Time & Date
No recent earthquake activity has been reported nearby.
Minimum magnitude displayed is 2.5.

Coastal Water Temperatures

Place Temperature
St Petersburg, FL 84.9 °F
Old Port Tampa, FL 82.9 °F
McKay Bay Entrance, FL 86.0 °F

Nearby Weather Stations